createdAt,value
2019-02-22T00:01:47.907Z,93.80
2019-02-22T00:04:16.498Z,90.90
2019-02-22T00:06:45.077Z,95.73
2019-02-22T00:09:13.601Z,96.93
2019-02-22T00:11:42.270Z,96.00
2019-02-22T00:14:10.811Z,93.73
2019-02-22T00:16:39.259Z,100.07
2019-02-22T00:19:07.810Z,97.07
2019-02-22T00:21:36.317Z,101.23
2019-02-22T00:24:04.759Z,112.50
2019-02-22T00:26:33.327Z,106.13
2019-02-22T00:29:01.986Z,108.90
2019-02-22T00:31:30.528Z,110.00
2019-02-22T00:33:59.097Z,109.47
2019-02-22T00:36:27.681Z,124.23
2019-02-22T00:38:56.252Z,115.20
2019-02-22T00:41:24.804Z,119.40
2019-02-22T00:43:53.348Z,141.47
2019-02-22T00:46:21.900Z,122.20
2019-02-22T00:48:51.495Z,128.90
2019-02-22T00:51:20.063Z,134.93
2019-02-22T00:53:48.578Z,129.60
2019-02-22T00:56:17.163Z,130.97
2019-02-22T00:58:45.710Z,130.37
2019-02-22T01:01:14.317Z,131.47
2019-02-22T01:03:42.784Z,130.80
2019-02-22T01:06:11.285Z,137.93
2019-02-22T01:08:41.017Z,133.17
2019-02-22T01:11:09.828Z,131.13
2019-02-22T01:13:38.428Z,134.40
2019-02-22T01:16:07.012Z,135.20
2019-02-22T01:18:38.457Z,125.07
2019-02-22T01:21:06.940Z,117.13
2019-02-22T01:23:35.469Z,119.03
2019-02-22T01:26:04.096Z,107.60
2019-02-22T01:28:32.821Z,105.87
2019-02-22T01:31:01.463Z,121.70
2019-02-22T01:33:30.071Z,100.47
2019-02-22T01:35:58.773Z,125.63
2019-02-22T01:38:27.224Z,115.87
2019-02-22T01:40:55.801Z,111.10
2019-02-22T01:43:24.301Z,119.43
2019-02-22T01:45:52.907Z,124.53
2019-02-22T01:48:21.515Z,135.17
2019-02-22T01:50:50.084Z,127.83
2019-02-22T01:53:18.639Z,121.90
2019-02-22T01:55:47.120Z,125.47
2019-02-22T01:58:15.661Z,116.00
2019-02-22T02:00:44.235Z,115.67
2019-02-22T02:03:12.855Z,135.63
2019-02-22T02:05:41.365Z,133.93
2019-02-22T02:08:09.919Z,126.00
2019-02-22T02:10:38.431Z,117.23
2019-02-22T02:13:07.102Z,119.30
2019-02-22T02:15:35.712Z,106.47
2019-02-22T02:18:04.376Z,108.37
2019-02-22T02:20:33.030Z,107.00
2019-02-22T02:23:01.528Z,110.07
2019-02-22T02:25:30.111Z,119.00
2019-02-22T02:27:58.824Z,117.77
2019-02-22T02:30:27.424Z,114.73
2019-02-22T02:32:56.205Z,108.83
2019-02-22T02:35:24.724Z,107.97
2019-02-22T02:37:53.401Z,121.53
2019-02-22T02:40:21.960Z,106.00
2019-02-22T02:42:50.491Z,109.20
2019-02-22T02:45:19.204Z,109.50
2019-02-22T02:47:47.678Z,111.53
2019-02-22T02:50:16.579Z,124.77
2019-02-22T02:52:47.844Z,122.60
2019-02-22T02:55:24.288Z,124.73
2019-02-22T02:57:52.868Z,121.67
2019-02-22T03:00:21.424Z,112.97
2019-02-22T03:02:56.249Z,120.93
2019-02-22T03:05:53.011Z,108.37
2019-02-22T03:08:22.621Z,116.43
2019-02-22T03:10:51.127Z,124.60
2019-02-22T03:13:19.874Z,113.47
2019-02-22T03:15:48.481Z,126.07
2019-02-22T03:18:16.933Z,129.57
2019-02-22T03:20:45.421Z,112.70
2019-02-22T03:23:13.968Z,128.63
2019-02-22T03:25:44.013Z,131.10
2019-02-22T03:28:12.620Z,132.97
2019-02-22T03:30:41.210Z,123.17
2019-02-22T03:33:09.871Z,124.00
2019-02-22T03:35:38.445Z,109.90
2019-02-22T03:38:07.011Z,116.57
2019-02-22T03:40:35.557Z,135.10
2019-02-22T03:43:04.115Z,108.67
2019-02-22T03:45:32.710Z,113.93
2019-02-22T03:48:01.422Z,118.90
2019-02-22T03:50:30.538Z,116.70
2019-02-22T03:53:16.943Z,117.93
2019-02-22T03:55:45.655Z,123.47
2019-02-22T03:58:14.268Z,117.67
2019-02-22T04:00:46.665Z,124.73
2019-02-22T04:03:15.212Z,106.93
2019-02-22T04:05:43.804Z,122.63
2019-02-22T04:08:12.474Z,124.67
2019-02-22T04:10:44.109Z,121.73
2019-02-22T04:13:13.134Z,120.87
2019-02-22T04:15:41.913Z,123.57
2019-02-22T04:18:10.614Z,125.57
2019-02-22T04:20:39.338Z,113.30
2019-02-22T04:23:07.977Z,117.03
2019-02-22T04:25:36.660Z,105.97
2019-02-22T04:28:05.236Z,110.60
2019-02-22T04:30:33.771Z,113.23
2019-02-22T04:33:02.356Z,114.13
2019-02-22T04:35:30.893Z,102.27
2019-02-22T04:37:59.624Z,105.97
2019-02-22T04:40:28.336Z,118.93
2019-02-22T04:42:57.112Z,112.33
2019-02-22T04:45:25.986Z,108.33
2019-02-22T04:47:55.322Z,116.53
2019-02-22T04:50:24.147Z,105.10
2019-02-22T04:52:52.877Z,117.50
2019-02-22T04:55:21.546Z,122.03
2019-02-22T04:57:50.130Z,115.07
2019-02-22T05:00:21.765Z,109.50
2019-02-22T05:02:50.362Z,109.87
2019-02-22T05:05:18.915Z,117.67
2019-02-22T05:07:47.604Z,122.27
2019-02-22T05:10:16.194Z,102.33
2019-02-22T05:12:44.936Z,112.70
2019-02-22T05:15:14.618Z,110.80
2019-02-22T05:17:43.221Z,114.53
2019-02-22T05:20:11.913Z,110.63
2019-02-22T05:22:41.729Z,111.80
2019-02-22T05:25:10.358Z,105.83
2019-02-22T05:27:38.943Z,107.80
2019-02-22T05:30:07.911Z,103.70
2019-02-22T05:32:36.625Z,114.80
2019-02-22T05:35:05.277Z,116.57
2019-02-22T05:37:34.081Z,118.73
2019-02-22T05:40:02.853Z,105.57
2019-02-22T05:42:31.724Z,111.83
2019-02-22T05:45:01.000Z,134.93
2019-02-22T05:47:29.811Z,106.93
2019-02-22T05:49:58.396Z,114.90
2019-02-22T05:52:26.967Z,110.97
2019-02-22T05:54:58.555Z,129.90
2019-02-22T05:57:27.043Z,110.80
2019-02-22T05:59:58.654Z,115.00
2019-02-22T06:02:27.266Z,125.03
2019-02-22T06:04:56.092Z,128.47
2019-02-22T06:07:26.078Z,107.53
2019-02-22T06:09:55.129Z,124.67
2019-02-22T06:12:34.116Z,112.03
2019-02-22T06:15:00.632Z,111.63
2019-02-22T06:17:42.789Z,130.93
2019-02-22T06:23:43.484Z,105.20
2019-02-22T06:26:20.022Z,101.70
2019-02-22T06:28:48.564Z,146.57
2019-02-22T06:31:19.385Z,120.90
2019-02-22T06:33:48.053Z,114.73
2019-02-22T06:36:16.562Z,101.43
2019-02-22T06:38:46.753Z,110.70
2019-02-22T06:41:15.189Z,95.23
2019-02-22T06:44:02.249Z,104.60
2019-02-22T06:46:30.709Z,92.77
2019-02-22T06:48:59.320Z,109.97
2019-02-22T06:51:27.775Z,103.30
2019-02-22T06:53:56.255Z,102.90
2019-02-22T06:56:24.740Z,98.97
2019-02-22T06:58:53.289Z,102.50
2019-02-22T07:01:21.725Z,114.13
2019-02-22T07:03:50.175Z,116.67
2019-02-22T07:06:18.681Z,106.70
2019-02-22T07:08:47.183Z,117.33
2019-02-22T07:11:23.080Z,97.27
2019-02-22T07:13:51.584Z,94.87
2019-02-22T07:16:20.083Z,102.80
2019-02-22T07:18:49.948Z,95.57
2019-02-22T07:21:18.469Z,95.47
2019-02-22T07:23:47.050Z,90.80
2019-02-22T07:26:15.493Z,90.70
2019-02-22T07:28:43.980Z,92.23
2019-02-22T07:31:12.499Z,89.67
2019-02-22T07:33:40.931Z,97.10
2019-02-22T07:36:09.438Z,93.27
2019-02-22T07:38:37.916Z,99.40
2019-02-22T07:41:06.419Z,106.90
2019-02-22T07:43:34.847Z,97.77
2019-02-22T07:46:03.326Z,96.20
2019-02-22T07:48:31.837Z,101.40
2019-02-22T07:51:01.458Z,89.93
2019-02-22T07:53:29.960Z,96.07
2019-02-22T07:55:58.532Z,96.10
2019-02-22T07:58:27.069Z,97.80
2019-02-22T08:00:56.077Z,95.83
2019-02-22T08:03:24.591Z,93.07
2019-02-22T08:05:53.179Z,96.63
2019-02-22T08:08:22.693Z,86.50
2019-02-22T08:10:51.329Z,86.13
2019-02-22T08:13:20.317Z,81.17
2019-02-22T08:15:48.895Z,82.70
2019-02-22T08:18:17.393Z,80.30
2019-02-22T08:20:45.886Z,70.33
2019-02-22T08:23:15.611Z,67.33
2019-02-22T08:25:44.315Z,75.43
2019-02-22T08:28:12.664Z,71.73
2019-02-22T08:30:41.295Z,80.47
2019-02-22T08:33:09.839Z,66.23
2019-02-22T08:35:38.204Z,63.80
2019-02-22T08:38:06.688Z,61.07
2019-02-22T08:40:35.137Z,64.07
2019-02-22T08:43:03.659Z,59.03
2019-02-22T08:45:32.185Z,65.10
2019-02-22T08:48:00.652Z,61.90
2019-02-22T08:50:29.104Z,61.90
2019-02-22T08:52:57.564Z,62.17
2019-02-22T08:55:25.960Z,59.23
2019-02-22T08:57:54.661Z,53.30
2019-02-22T09:00:23.283Z,51.17
2019-02-22T09:02:51.715Z,65.10
2019-02-22T09:05:20.169Z,53.87
2019-02-22T09:07:48.550Z,51.93
2019-02-22T09:10:16.939Z,56.57
2019-02-22T09:12:45.330Z,54.67
2019-02-22T09:15:13.807Z,53.70
2019-02-22T09:17:42.227Z,48.80
2019-02-22T09:20:10.763Z,47.63
2019-02-22T09:22:39.227Z,50.83
2019-02-22T09:25:07.759Z,52.53
2019-02-22T09:27:36.191Z,48.70
2019-02-22T09:30:04.862Z,47.60
2019-02-22T09:32:33.308Z,45.17
2019-02-22T09:35:01.697Z,52.70
2019-02-22T09:37:30.073Z,46.80
2019-02-22T09:39:58.577Z,42.93
2019-02-22T09:42:27.027Z,45.60
2019-02-22T09:44:55.471Z,42.07
2019-02-22T09:47:23.968Z,39.97
2019-02-22T09:49:52.544Z,43.03
2019-02-22T09:52:21.012Z,43.07
2019-02-22T09:54:49.474Z,38.93
2019-02-22T09:57:17.919Z,42.00
2019-02-22T09:59:46.401Z,40.10
2019-02-22T10:02:15.007Z,43.23
2019-02-22T10:04:54.280Z,42.13
2019-02-22T10:07:13.563Z,41.20
2019-02-22T10:09:41.955Z,40.13
2019-02-22T10:12:10.364Z,40.27
2019-02-22T10:14:38.887Z,41.00
2019-02-22T10:17:07.326Z,36.93
2019-02-22T10:19:35.706Z,33.23
2019-02-22T10:22:04.154Z,29.97
2019-02-22T10:24:32.620Z,30.77
2019-02-22T10:27:01.019Z,30.73
2019-02-22T10:29:29.603Z,28.77
2019-02-22T10:31:58.008Z,26.47
2019-02-22T10:34:26.392Z,32.83
2019-02-22T10:36:54.837Z,26.13
2019-02-22T10:39:23.181Z,27.17
2019-02-22T10:41:51.644Z,28.07
2019-02-22T10:44:20.099Z,31.20
2019-02-22T10:46:48.551Z,31.80
2019-02-22T10:49:16.935Z,31.90
2019-02-22T10:51:45.316Z,33.90
2019-02-22T10:54:13.767Z,31.40
2019-02-22T10:56:42.180Z,31.03
2019-02-22T10:59:10.564Z,31.43
2019-02-22T11:01:38.927Z,33.63
2019-02-22T11:04:07.389Z,29.70
2019-02-22T11:06:35.884Z,24.47
2019-02-22T11:09:06.414Z,25.30
2019-02-22T11:11:34.932Z,28.50
2019-02-22T11:14:03.508Z,24.17
2019-02-22T11:16:31.969Z,22.17
2019-02-22T11:19:00.381Z,26.53
2019-02-22T11:21:28.852Z,23.03
2019-02-22T11:23:57.208Z,24.73
2019-02-22T11:26:25.666Z,26.90
2019-02-22T11:28:54.146Z,26.67
2019-02-22T11:31:22.610Z,30.50
2019-02-22T11:33:51.116Z,29.13
2019-02-22T11:36:19.543Z,28.07
2019-02-22T11:38:47.920Z,29.80
2019-02-22T11:41:16.516Z,28.57
2019-02-22T11:43:44.989Z,34.50
2019-02-22T11:46:13.444Z,27.53
2019-02-22T11:48:48.136Z,26.57
2019-02-22T11:51:19.434Z,26.60
2019-02-22T11:53:48.828Z,26.50
2019-02-22T12:09:14.802Z,37.20
2019-02-22T12:10:10.179Z,34.43
2019-02-22T12:12:44.589Z,28.53
2019-02-22T12:15:16.992Z,34.33
2019-02-22T12:18:01.183Z,34.80
2019-02-22T12:20:56.143Z,27.50
2019-02-22T12:23:27.999Z,32.07
2019-02-22T12:26:05.896Z,28.67
2019-02-22T12:28:35.096Z,26.93
2019-02-22T12:31:06.879Z,27.60
2019-02-22T12:37:13.845Z,31.83
2019-02-22T12:39:42.307Z,28.17
2019-02-22T12:42:10.733Z,29.93
2019-02-22T12:44:39.224Z,29.07
2019-02-22T12:47:07.752Z,32.67
2019-02-22T12:49:36.339Z,33.43
2019-02-22T12:52:04.849Z,28.67
2019-02-22T12:54:33.556Z,31.63
2019-02-22T12:57:02.198Z,28.67
2019-02-22T12:59:30.700Z,28.50
2019-02-22T13:01:59.584Z,32.93
2019-02-22T13:04:28.071Z,34.87
2019-02-22T13:06:56.509Z,31.30
2019-02-22T13:09:36.025Z,35.87
2019-02-22T13:11:55.380Z,35.90
2019-02-22T13:14:23.842Z,39.63
2019-02-22T13:16:52.364Z,36.60
2019-02-22T13:19:20.810Z,33.43
2019-02-22T13:21:49.340Z,31.70
2019-02-22T13:24:17.828Z,37.13
2019-02-22T13:26:46.384Z,32.43
2019-02-22T13:29:14.848Z,37.20
2019-02-22T13:31:43.361Z,33.60
2019-02-22T13:34:20.766Z,35.53
2019-02-22T13:36:49.236Z,32.57
2019-02-22T13:39:17.692Z,33.87
2019-02-22T13:41:46.191Z,32.80
2019-02-22T13:44:14.636Z,29.57
2019-02-22T13:46:43.172Z,30.03
2019-02-22T13:49:11.678Z,31.93
2019-02-22T13:51:40.205Z,30.37
2019-02-22T13:54:08.673Z,28.73
2019-02-22T13:56:38.309Z,32.37
2019-02-22T13:59:06.911Z,32.00
2019-02-22T14:01:35.455Z,34.17
2019-02-22T14:04:03.992Z,34.27
2019-02-22T14:06:32.574Z,29.27
2019-02-22T14:09:01.144Z,36.03
2019-02-22T14:11:29.611Z,35.47
2019-02-22T14:13:58.073Z,30.93
2019-02-22T14:16:26.605Z,32.93
2019-02-22T14:18:55.044Z,33.23
2019-02-22T14:21:23.581Z,34.50
2019-02-22T14:23:52.074Z,33.80
2019-02-22T14:26:20.568Z,33.13
2019-02-22T14:28:49.001Z,34.57
2019-02-22T14:31:24.636Z,29.80
2019-02-22T14:33:53.142Z,30.43
2019-02-22T14:36:21.783Z,32.20
2019-02-22T14:38:50.447Z,29.20
2019-02-22T14:41:18.966Z,31.67
2019-02-22T14:43:47.372Z,31.33
2019-02-22T14:46:25.548Z,39.13
2019-02-22T14:48:46.257Z,35.10
2019-02-22T14:51:15.267Z,35.00
2019-02-22T14:53:43.813Z,35.00
2019-02-22T14:56:12.290Z,33.93
2019-02-22T14:58:43.341Z,37.27
2019-02-22T15:01:11.672Z,36.13
2019-02-22T15:03:40.168Z,38.27
2019-02-22T15:06:08.625Z,39.20
2019-02-22T15:08:37.463Z,37.20
2019-02-22T15:11:05.917Z,32.30
2019-02-22T15:13:34.345Z,35.83
2019-02-22T15:16:20.949Z,34.97
2019-02-22T15:18:49.530Z,35.07
2019-02-22T15:21:18.957Z,36.30
2019-02-22T15:23:47.585Z,34.70
2019-02-22T15:26:16.095Z,36.90
2019-02-22T15:28:44.588Z,35.70
2019-02-22T15:31:13.088Z,37.67
2019-02-22T15:37:03.965Z,35.40
2019-02-22T15:39:32.330Z,39.43
2019-02-22T15:42:00.802Z,41.70
2019-02-22T15:44:29.287Z,43.30
2019-02-22T15:46:57.678Z,41.90
2019-02-22T15:49:26.591Z,43.57
2019-02-22T15:51:55.101Z,44.50
2019-02-22T15:54:23.586Z,43.53
2019-02-22T15:56:52.040Z,49.07
2019-02-22T15:59:21.293Z,43.13
2019-02-22T16:01:55.203Z,42.47
2019-02-22T16:04:45.393Z,45.60
2019-02-22T16:07:13.892Z,46.90
2019-02-22T16:09:42.734Z,53.67
2019-02-22T16:12:11.270Z,49.63
2019-02-22T16:14:39.793Z,49.57
2019-02-22T16:17:08.260Z,46.20
2019-02-22T16:19:36.742Z,49.97
2019-02-22T16:22:05.204Z,49.50
2019-02-22T16:24:33.695Z,51.17
2019-02-22T16:27:02.508Z,42.97
2019-02-22T16:29:31.540Z,43.77
2019-02-22T16:32:00.281Z,50.40
2019-02-22T16:34:28.791Z,40.73
2019-02-22T16:36:57.344Z,43.87
2019-02-22T16:39:25.789Z,41.37
2019-02-22T16:41:54.327Z,41.47
2019-02-22T16:44:22.933Z,42.27
2019-02-22T16:46:51.512Z,43.43
2019-02-22T16:49:20.049Z,42.27
2019-02-22T16:51:48.631Z,42.47
2019-02-22T16:54:17.188Z,37.47
2019-02-22T16:56:45.769Z,37.00
2019-02-22T16:59:15.202Z,38.20
2019-02-22T17:01:44.077Z,44.97
2019-02-22T17:04:12.717Z,36.57
2019-02-22T17:06:41.276Z,41.57
2019-02-22T17:09:09.813Z,39.43
2019-02-22T17:11:38.361Z,44.27
2019-02-22T17:14:06.968Z,39.87
2019-02-22T17:16:45.199Z,41.87
2019-02-22T17:19:05.743Z,39.90
2019-02-22T17:21:34.273Z,40.07
2019-02-22T17:24:02.787Z,40.07
2019-02-22T17:26:31.275Z,45.50
2019-02-22T17:28:59.832Z,37.93
2019-02-22T17:31:28.416Z,40.93
2019-02-22T17:33:56.917Z,42.20
2019-02-22T17:36:27.202Z,44.80
2019-02-22T17:38:55.960Z,44.23
2019-02-22T17:41:24.485Z,44.27
2019-02-22T17:43:53.028Z,39.83
2019-02-22T17:46:21.732Z,49.00
2019-02-22T17:48:50.261Z,45.57
2019-02-22T17:51:18.912Z,47.37
2019-02-22T17:53:47.416Z,50.23
2019-02-22T17:56:15.973Z,46.17
2019-02-22T17:58:44.484Z,46.80
2019-02-22T18:01:13.509Z,45.30
2019-02-22T18:03:42.257Z,48.37
2019-02-22T18:06:10.907Z,42.20
2019-02-22T18:08:39.564Z,45.30
2019-02-22T18:11:08.275Z,48.00
2019-02-22T18:13:36.832Z,45.47
2019-02-22T18:16:05.394Z,50.87
2019-02-22T18:18:33.847Z,45.00
2019-02-22T18:21:02.458Z,46.97
2019-02-22T18:23:30.990Z,48.73
2019-02-22T18:25:59.445Z,44.47
2019-02-22T18:28:28.394Z,47.37
2019-02-22T18:30:56.961Z,49.00
2019-02-22T18:33:25.484Z,45.63
2019-02-22T18:35:54.002Z,50.87
2019-02-22T18:38:22.495Z,46.43
2019-02-22T18:40:51.072Z,49.70
2019-02-22T18:43:19.540Z,45.70
2019-02-22T18:45:48.060Z,52.07
2019-02-22T18:48:16.575Z,45.30
2019-02-22T18:50:45.120Z,44.97
2019-02-22T18:53:15.775Z,46.73
2019-02-22T18:55:50.201Z,37.57
2019-02-22T18:58:14.533Z,34.43
2019-02-22T19:00:43.068Z,36.17
2019-02-22T19:03:11.517Z,40.20
2019-02-22T19:05:39.921Z,34.47
2019-02-22T19:08:08.389Z,35.87
2019-02-22T19:10:36.952Z,29.70
2019-02-22T19:13:05.467Z,33.67
2019-02-22T19:15:34.237Z,38.00
2019-02-22T19:18:02.765Z,32.42
2019-02-22T19:20:31.267Z,35.17
2019-02-22T19:22:59.700Z,30.83
2019-02-22T19:25:29.301Z,34.10
2019-02-22T19:27:57.780Z,31.30
2019-02-22T19:30:26.246Z,31.30
2019-02-22T19:32:54.707Z,31.30
2019-02-22T19:35:23.245Z,27.30
2019-02-22T19:37:51.972Z,26.80
2019-02-22T19:40:20.828Z,33.87
2019-02-22T19:42:49.373Z,28.50
2019-02-22T19:45:17.945Z,27.73
2019-02-22T19:47:46.504Z,28.10
2019-02-22T19:50:15.032Z,23.20
2019-02-22T19:52:43.519Z,25.30
2019-02-22T19:55:12.651Z,27.33
2019-02-22T19:57:41.161Z,26.53
2019-02-22T20:00:11.313Z,25.97
2019-02-22T20:02:40.046Z,25.30
2019-02-22T20:05:08.689Z,26.13
2019-02-22T20:07:37.272Z,24.70
2019-02-22T20:10:17.027Z,23.43
2019-02-22T20:12:36.737Z,23.07
2019-02-22T20:15:05.629Z,25.27
2019-02-22T20:17:54.987Z,22.23
2019-02-22T20:20:23.548Z,23.37
2019-02-22T20:22:52.111Z,22.60
2019-02-22T20:25:20.700Z,23.20
2019-02-22T20:27:49.240Z,25.73
2019-02-22T20:30:17.787Z,22.20
2019-02-22T20:32:46.396Z,24.33
2019-02-22T20:35:15.758Z,23.47
2019-02-22T20:37:51.734Z,25.47
2019-02-22T20:40:14.413Z,26.10
2019-02-22T20:42:42.938Z,23.33
2019-02-22T20:45:11.708Z,23.97
2019-02-22T20:47:40.218Z,25.40
2019-02-22T20:50:09.333Z,27.30
2019-02-22T20:52:37.861Z,28.73
2019-02-22T20:55:06.453Z,32.20
2019-02-22T20:57:34.953Z,28.50
2019-02-22T21:00:03.667Z,28.70
2019-02-22T21:02:32.172Z,31.83
2019-02-22T21:05:00.637Z,31.40
2019-02-22T21:07:29.175Z,32.00
2019-02-22T21:09:57.793Z,32.23
2019-02-22T21:12:26.320Z,33.93
2019-02-22T21:14:54.841Z,30.73
2019-02-22T21:17:23.399Z,31.77
2019-02-22T21:19:51.948Z,33.33
2019-02-22T21:22:20.435Z,32.20
2019-02-22T21:24:48.900Z,30.63
2019-02-22T21:27:17.336Z,35.07
2019-02-22T21:29:45.869Z,40.17
2019-02-22T21:32:14.453Z,32.30
2019-02-22T21:34:42.973Z,31.53
2019-02-22T21:37:11.632Z,33.93
2019-02-22T21:39:40.192Z,33.90
2019-02-22T21:42:19.698Z,34.27
2019-02-22T21:44:38.945Z,33.03
2019-02-22T21:47:07.561Z,32.60
2019-02-22T21:49:36.205Z,35.30
2019-02-22T21:52:04.787Z,36.27
2019-02-22T21:54:34.225Z,36.47
2019-02-22T21:57:02.868Z,35.50
2019-02-22T21:59:31.381Z,33.97
2019-02-22T22:01:59.922Z,37.83
2019-02-22T22:04:28.529Z,36.47
2019-02-22T22:06:57.311Z,37.77
2019-02-22T22:09:25.878Z,32.90
2019-02-22T22:11:54.446Z,32.63
2019-02-22T22:14:22.991Z,33.70
2019-02-22T22:16:51.585Z,35.70
2019-02-22T22:19:20.241Z,38.97
2019-02-22T22:21:48.775Z,36.77
2019-02-22T22:24:17.457Z,38.80
2019-02-22T22:26:45.897Z,34.33
2019-02-22T22:29:14.570Z,36.10
2019-02-22T22:31:43.212Z,34.27
2019-02-22T22:34:11.784Z,36.23
2019-02-22T22:36:40.369Z,37.17
2019-02-22T22:39:09.157Z,35.50
2019-02-22T22:41:37.740Z,40.80
2019-02-22T22:44:06.232Z,39.33
2019-02-22T22:46:37.118Z,39.83
2019-02-22T22:49:05.894Z,35.97
2019-02-22T22:51:34.504Z,36.93
2019-02-22T22:54:03.492Z,34.87
2019-02-22T22:56:32.164Z,40.07
2019-02-22T22:59:00.825Z,39.50
2019-02-22T23:01:31.548Z,38.00
2019-02-22T23:04:19.173Z,37.93
2019-02-22T23:06:47.636Z,35.30
2019-02-22T23:09:20.675Z,40.23
2019-02-22T23:11:49.222Z,42.73
2019-02-22T23:14:17.839Z,39.40
2019-02-22T23:16:46.373Z,44.17
2019-02-22T23:19:15.016Z,37.97
2019-02-22T23:21:43.637Z,38.30
2019-02-22T23:24:12.232Z,38.17
2019-02-22T23:26:59.443Z,34.50
2019-02-22T23:29:28.037Z,38.03
2019-02-22T23:31:56.544Z,38.70
2019-02-22T23:34:25.130Z,41.53
2019-02-22T23:36:53.784Z,34.83
2019-02-22T23:39:22.240Z,35.63
2019-02-22T23:41:50.800Z,40.17
2019-02-22T23:44:19.325Z,38.60
2019-02-22T23:46:47.876Z,37.13
2019-02-22T23:49:16.520Z,35.50
2019-02-22T23:51:45.068Z,36.73
2019-02-22T23:54:13.804Z,38.50
2019-02-22T23:56:42.720Z,37.50
2019-02-22T23:59:11.235Z,39.67
